createdAt,value
2018-02-23T00:00:36.978Z,11.10
2018-02-23T00:03:07.830Z,17.17
2018-02-23T00:05:38.992Z,11.75
2018-02-23T00:08:07.198Z,13.93
2018-02-23T00:10:38.242Z,14.23
2018-02-23T00:16:00.134Z,13.85
2018-02-23T00:18:27.562Z,20.77
2018-02-23T00:20:55.186Z,16.50
2018-02-23T00:23:28.039Z,15.38
2018-02-23T00:25:56.370Z,15.00
2018-02-23T00:28:27.398Z,18.20
2018-02-23T00:30:57.854Z,15.90
2018-02-23T00:33:31.623Z,13.88
2018-02-23T00:36:04.361Z,10.23
2018-02-23T00:38:34.792Z,16.02
2018-02-23T00:41:06.119Z,11.02
2018-02-23T00:43:37.370Z,13.75
2018-02-23T00:46:08.361Z,8.82
2018-02-23T00:48:37.696Z,13.35
2018-02-23T00:51:12.347Z,10.30
2018-02-23T00:53:39.809Z,9.60
2018-02-23T00:56:07.269Z,9.45
2018-02-23T00:58:34.766Z,15.88
2018-02-23T01:01:02.255Z,12.75
2018-02-23T01:03:29.731Z,13.18
2018-02-23T01:05:57.983Z,11.90
2018-02-23T01:08:25.413Z,15.27
2018-02-23T01:10:52.852Z,13.40
2018-02-23T01:13:20.297Z,9.73
2018-02-23T01:15:48.510Z,8.90
2018-02-23T01:18:15.957Z,11.50
2018-02-23T01:20:43.396Z,11.27
2018-02-23T01:23:11.612Z,14.23
2018-02-23T01:25:39.172Z,12.32
2018-02-23T01:28:06.596Z,9.93
2018-02-23T01:30:34.801Z,11.23
2018-02-23T01:33:02.252Z,10.50
2018-02-23T01:35:29.693Z,10.63
2018-02-23T01:37:57.148Z,10.82
2018-02-23T01:40:24.597Z,12.10
2018-02-23T01:42:52.054Z,12.70
2018-02-23T01:45:19.497Z,11.48
2018-02-23T01:47:46.952Z,12.73
2018-02-23T01:50:14.396Z,11.05
2018-02-23T01:52:41.852Z,9.90
2018-02-23T01:55:09.308Z,12.13
2018-02-23T01:57:37.537Z,13.88
2018-02-23T02:00:04.975Z,11.77
2018-02-23T02:02:32.417Z,11.48
2018-02-23T02:04:59.861Z,11.45
2018-02-23T02:07:28.068Z,13.25
2018-02-23T02:09:55.516Z,11.43
2018-02-23T02:12:23.720Z,13.90
2018-02-23T02:14:51.182Z,13.82
2018-02-23T02:17:18.620Z,10.00
2018-02-23T02:19:46.838Z,11.70
2018-02-23T02:22:14.273Z,11.68
2018-02-23T02:24:41.747Z,13.02
2018-02-23T02:27:09.175Z,10.18
2018-02-23T02:29:37.386Z,11.27
2018-02-23T02:32:04.823Z,13.55
2018-02-23T02:34:33.031Z,11.27
2018-02-23T02:37:00.489Z,13.13
2018-02-23T02:39:27.929Z,9.25
2018-02-23T02:41:56.139Z,8.68
2018-02-23T02:44:23.581Z,11.73
2018-02-23T02:46:51.031Z,8.38
2018-02-23T02:49:19.253Z,10.13
2018-02-23T02:51:46.688Z,11.45
2018-02-23T02:54:14.165Z,10.18
2018-02-23T02:56:41.613Z,11.40
2018-02-23T02:59:09.057Z,7.85
2018-02-23T03:01:37.257Z,8.30
2018-02-23T03:04:04.714Z,9.25
2018-02-23T03:06:32.176Z,8.48
2018-02-23T03:08:59.624Z,10.68
2018-02-23T03:11:27.829Z,5.85
2018-02-23T03:13:55.264Z,8.52
2018-02-23T03:16:23.488Z,11.18
2018-02-23T03:18:50.936Z,9.27
2018-02-23T03:21:18.392Z,9.02
2018-02-23T03:23:45.840Z,12.63
2018-02-23T03:26:14.144Z,9.15
2018-02-23T03:28:41.581Z,8.57
2018-02-23T03:31:09.788Z,7.47
2018-02-23T03:33:37.224Z,7.87
2018-02-23T03:36:04.666Z,9.93
2018-02-23T03:38:32.123Z,8.05
2018-02-23T03:40:59.577Z,8.65
2018-02-23T03:43:27.021Z,10.65
2018-02-23T03:45:54.462Z,8.35
2018-02-23T03:48:21.924Z,11.55
2018-02-23T03:50:49.365Z,8.65
2018-02-23T03:53:16.808Z,9.45
2018-02-23T03:55:45.046Z,12.90
2018-02-23T03:58:12.486Z,9.20
2018-02-23T04:00:39.925Z,8.85
2018-02-23T04:03:07.366Z,7.80
2018-02-23T04:05:34.801Z,10.40
2018-02-23T04:08:02.230Z,8.65
2018-02-23T04:10:29.674Z,7.85
2018-02-23T04:12:57.105Z,8.40
2018-02-23T04:15:24.553Z,7.10
2018-02-23T04:17:51.997Z,10.82
2018-02-23T04:20:19.437Z,7.20
2018-02-23T04:22:46.873Z,10.68
2018-02-23T04:25:15.082Z,8.88
2018-02-23T04:27:42.518Z,8.95
2018-02-23T04:30:10.725Z,8.05
2018-02-23T04:32:38.158Z,10.05
2018-02-23T04:35:06.384Z,10.13
2018-02-23T04:37:33.826Z,7.32
2018-02-23T04:40:01.657Z,10.93
2018-02-23T04:42:29.081Z,8.73
2018-02-23T04:44:56.534Z,7.37
2018-02-23T04:47:23.980Z,10.15
2018-02-23T04:49:51.425Z,11.73
2018-02-23T04:52:18.868Z,14.02
2018-02-23T04:54:47.077Z,11.48
2018-02-23T04:57:14.544Z,11.25
2018-02-23T04:59:41.988Z,12.57
2018-02-23T05:02:10.191Z,8.25
2018-02-23T05:04:37.639Z,10.57
2018-02-23T05:07:05.081Z,10.23
2018-02-23T05:09:33.298Z,11.25
2018-02-23T05:12:00.759Z,11.27
2018-02-23T05:14:28.207Z,12.52
2018-02-23T05:16:55.672Z,10.63
2018-02-23T05:19:23.118Z,12.25
2018-02-23T05:21:51.343Z,8.82
2018-02-23T05:24:18.789Z,10.60
2018-02-23T05:26:46.243Z,9.80
2018-02-23T05:29:13.678Z,9.45
2018-02-23T05:31:41.898Z,11.40
2018-02-23T05:34:09.337Z,9.00
2018-02-23T05:36:36.788Z,13.30
2018-02-23T05:39:04.999Z,18.15
2018-02-23T05:41:32.462Z,9.68
2018-02-23T05:43:59.906Z,14.32
2018-02-23T05:46:27.366Z,11.55
2018-02-23T05:48:54.810Z,11.40
2018-02-23T05:51:23.031Z,12.93
2018-02-23T05:53:50.505Z,18.70
2018-02-23T05:56:17.950Z,17.30
2018-02-23T05:58:45.407Z,19.17
2018-02-23T06:01:12.883Z,16.50
2018-02-23T06:03:40.325Z,12.80
2018-02-23T06:06:07.772Z,15.80
2018-02-23T06:08:35.226Z,10.50
2018-02-23T06:11:03.460Z,15.90
2018-02-23T06:13:30.931Z,14.25
2018-02-23T06:16:04.874Z,12.07
2018-02-23T06:18:38.140Z,10.55
2018-02-23T06:21:05.601Z,12.77
2018-02-23T06:23:33.044Z,11.80
2018-02-23T06:26:00.480Z,11.10
2018-02-23T06:28:27.947Z,11.40
2018-02-23T06:30:55.413Z,10.90
2018-02-23T06:33:22.862Z,17.25
2018-02-23T06:35:50.318Z,16.60
2018-02-23T06:38:19.474Z,20.02
2018-02-23T06:40:46.957Z,15.60
2018-02-23T06:43:14.427Z,18.67
2018-02-23T06:45:42.638Z,19.48
2018-02-23T06:48:10.104Z,21.05
2018-02-23T06:50:38.294Z,14.77
2018-02-23T06:53:05.760Z,15.10
2018-02-23T06:55:33.218Z,23.08
2018-02-23T06:58:00.649Z,16.12
2018-02-23T07:00:28.856Z,15.52
2018-02-23T07:02:56.342Z,23.10
2018-02-23T07:05:23.798Z,15.57
2018-02-23T07:07:51.254Z,22.90
2018-02-23T07:10:18.684Z,16.23
2018-02-23T07:12:46.131Z,14.90
2018-02-23T07:15:14.581Z,15.93
2018-02-23T07:17:42.238Z,16.67
2018-02-23T07:20:09.816Z,15.80
2018-02-23T07:22:37.471Z,17.15
2018-02-23T07:25:05.043Z,16.50
2018-02-23T07:27:32.584Z,14.38
2018-02-23T07:30:00.297Z,14.87
2018-02-23T07:32:28.726Z,14.68
2018-02-23T07:34:56.362Z,17.10
2018-02-23T07:37:23.979Z,18.42
2018-02-23T07:39:51.590Z,19.67
2018-02-23T07:42:19.201Z,17.87
2018-02-23T07:44:46.826Z,17.55
2018-02-23T07:47:15.120Z,9.57
2018-02-23T07:49:42.731Z,11.93
2018-02-23T07:52:10.280Z,7.60
2018-02-23T07:54:37.958Z,6.57
2018-02-23T07:57:05.575Z,4.85
2018-02-23T07:59:33.854Z,5.40
2018-02-23T08:02:02.236Z,7.07
2018-02-23T08:04:29.902Z,8.80
2018-02-23T08:06:58.249Z,4.95
2018-02-23T08:09:25.735Z,10.48
2018-02-23T08:11:54.049Z,6.30
2018-02-23T08:14:21.515Z,6.45
2018-02-23T08:16:48.958Z,4.57
2018-02-23T08:19:17.188Z,9.13
2018-02-23T08:21:44.623Z,8.65
2018-02-23T08:24:12.064Z,6.40
2018-02-23T08:26:40.274Z,4.30
2018-02-23T08:29:07.713Z,4.53
2018-02-23T08:31:35.149Z,5.95
2018-02-23T08:34:02.606Z,8.05
2018-02-23T08:36:30.061Z,4.37
2018-02-23T08:38:57.502Z,4.65
2018-02-23T08:41:24.944Z,3.92
2018-02-23T08:43:52.398Z,5.78
2018-02-23T08:46:19.846Z,6.07
2018-02-23T08:48:48.047Z,4.78
2018-02-23T08:51:15.480Z,5.90
2018-02-23T08:53:43.707Z,6.72
2018-02-23T08:56:11.154Z,4.97
2018-02-23T08:58:38.619Z,5.40
2018-02-23T09:01:06.049Z,5.22
2018-02-23T09:03:34.256Z,8.57
2018-02-23T09:06:01.701Z,5.10
2018-02-23T09:08:29.169Z,7.78
2018-02-23T09:10:56.600Z,5.28
2018-02-23T09:13:24.808Z,6.12
2018-02-23T09:15:52.248Z,5.43
2018-02-23T09:18:20.462Z,4.90
2018-02-23T09:20:47.921Z,5.28
2018-02-23T09:23:15.344Z,6.53
2018-02-23T09:25:43.582Z,9.07
2018-02-23T09:28:11.013Z,7.80
2018-02-23T09:30:38.475Z,7.60
2018-02-23T09:33:05.908Z,5.32
2018-02-23T09:35:34.120Z,8.95
2018-02-23T09:38:01.573Z,7.03
2018-02-23T09:40:29.014Z,7.20
2018-02-23T09:42:57.223Z,5.50
2018-02-23T09:45:24.658Z,8.00
2018-02-23T09:47:52.878Z,7.87
2018-02-23T09:50:20.313Z,5.65
2018-02-23T09:52:47.758Z,6.05
2018-02-23T09:55:15.989Z,6.25
2018-02-23T09:57:43.422Z,6.80
2018-02-23T10:00:10.861Z,5.05
2018-02-23T10:02:39.085Z,5.20
2018-02-23T10:05:06.550Z,6.22
2018-02-23T10:07:33.985Z,6.80
2018-02-23T10:10:01.428Z,14.50
2018-02-23T10:12:29.638Z,7.12
2018-02-23T10:14:57.082Z,7.32
2018-02-23T10:17:25.294Z,7.32
2018-02-23T10:19:52.737Z,5.75
2018-02-23T10:22:20.179Z,5.55
2018-02-23T10:24:48.397Z,8.23
2018-02-23T10:27:15.838Z,6.53
2018-02-23T10:29:43.276Z,5.03
2018-02-23T10:32:11.477Z,5.37
2018-02-23T10:34:38.921Z,6.10
2018-02-23T10:37:07.117Z,7.07
2018-02-23T10:39:34.549Z,7.33
2018-02-23T10:42:01.993Z,9.50
2018-02-23T10:44:29.429Z,5.00
2018-02-23T10:46:56.893Z,7.28
2018-02-23T10:49:24.331Z,6.50
2018-02-23T10:51:51.787Z,7.60
2018-02-23T10:54:20.016Z,10.63
2018-02-23T10:56:47.454Z,5.90
2018-02-23T10:59:14.888Z,5.70
2018-02-23T11:01:43.107Z,10.60
2018-02-23T11:04:10.543Z,7.33
2018-02-23T11:06:37.988Z,7.83
2018-02-23T11:09:06.198Z,7.43
2018-02-23T11:11:33.641Z,6.57
2018-02-23T11:14:01.854Z,12.40
2018-02-23T11:16:29.299Z,7.23
2018-02-23T11:18:56.728Z,5.90
2018-02-23T11:21:24.928Z,7.80
2018-02-23T11:23:52.348Z,7.53
2018-02-23T11:26:19.815Z,8.30
2018-02-23T11:28:47.252Z,6.27
2018-02-23T11:31:14.704Z,8.90
2018-02-23T11:33:42.134Z,8.20
2018-02-23T11:36:09.583Z,7.53
2018-02-23T11:38:37.781Z,7.53
2018-02-23T11:41:05.265Z,8.63
2018-02-23T11:43:33.433Z,7.20
2018-02-23T11:46:00.875Z,7.90
2018-02-23T11:48:29.065Z,7.70
2018-02-23T11:50:56.514Z,10.30
2018-02-23T11:53:24.700Z,7.73
2018-02-23T11:55:52.136Z,9.23
2018-02-23T11:58:19.574Z,12.17
2018-02-23T12:00:47.018Z,7.53
2018-02-23T12:03:14.463Z,8.67
2018-02-23T12:05:41.891Z,10.10
2018-02-23T12:08:10.099Z,8.93
2018-02-23T12:10:37.544Z,10.33
2018-02-23T12:13:05.760Z,12.20
2018-02-23T12:15:33.199Z,8.30
2018-02-23T12:18:00.641Z,7.63
2018-02-23T12:20:28.836Z,11.33
2018-02-23T12:22:56.295Z,9.07
2018-02-23T12:25:23.729Z,7.70
2018-02-23T12:27:51.168Z,8.63
2018-02-23T12:30:18.602Z,9.13
2018-02-23T12:32:46.046Z,8.73
2018-02-23T12:35:13.494Z,11.67
2018-02-23T12:37:41.716Z,8.80
2018-02-23T12:40:09.162Z,13.30
2018-02-23T12:42:36.601Z,12.13
2018-02-23T12:45:04.805Z,11.97
2018-02-23T12:47:32.236Z,7.40
2018-02-23T12:50:00.428Z,13.70
2018-02-23T12:52:27.882Z,10.50
2018-02-23T12:54:56.074Z,10.10
2018-02-23T12:57:23.528Z,9.70
2018-02-23T12:59:51.730Z,12.10
2018-02-23T13:02:19.169Z,11.70
2018-02-23T13:04:46.627Z,14.90
2018-02-23T13:07:14.830Z,10.83
2018-02-23T13:09:42.293Z,14.67
2018-02-23T13:12:09.788Z,12.10
2018-02-23T13:14:42.856Z,9.07
2018-02-23T13:17:10.284Z,10.77
2018-02-23T13:19:37.731Z,10.73
2018-02-23T13:22:05.153Z,13.70
2018-02-23T13:24:32.593Z,11.37
2018-02-23T13:27:05.725Z,11.80
2018-02-23T13:29:33.179Z,11.07
2018-02-23T13:32:00.631Z,10.67
2018-02-23T13:34:28.067Z,11.33
2018-02-23T13:36:55.506Z,11.40
2018-02-23T13:39:23.714Z,10.67
2018-02-23T13:41:51.176Z,10.60
2018-02-23T13:44:18.624Z,13.27
2018-02-23T13:46:46.068Z,9.40
2018-02-23T13:49:14.284Z,11.67
2018-02-23T13:51:41.728Z,13.33
2018-02-23T13:54:14.845Z,8.70
2018-02-23T13:56:42.296Z,11.97
2018-02-23T13:59:09.740Z,10.10
2018-02-23T14:01:37.186Z,9.93
2018-02-23T14:04:05.411Z,11.17
2018-02-23T14:06:32.865Z,7.87
2018-02-23T14:09:00.327Z,8.90
2018-02-23T14:11:27.754Z,14.40
2018-02-23T14:13:55.972Z,8.63
2018-02-23T14:16:23.413Z,10.77
2018-02-23T14:18:50.876Z,11.47
2018-02-23T14:21:18.322Z,9.93
2018-02-23T14:23:46.534Z,9.10
2018-02-23T14:26:13.961Z,9.63
2018-02-23T14:28:42.165Z,10.73
2018-02-23T14:31:09.589Z,19.40
2018-02-23T14:33:37.048Z,12.60
2018-02-23T14:36:04.491Z,9.63
2018-02-23T14:38:31.955Z,11.10
2018-02-23T14:40:59.402Z,9.27
2018-02-23T14:43:26.884Z,12.80
2018-02-23T14:45:54.264Z,10.80
2018-02-23T14:48:34.267Z,7.60
2018-02-23T14:51:10.723Z,11.40
2018-02-23T14:53:38.165Z,8.63
2018-02-23T14:56:05.595Z,8.50
2018-02-23T14:58:33.054Z,12.53
2018-02-23T15:01:00.509Z,8.43
2018-02-23T15:03:27.955Z,9.33
2018-02-23T15:05:56.161Z,9.23
2018-02-23T15:08:23.625Z,12.53
2018-02-23T15:10:51.058Z,8.63
2018-02-23T15:13:18.512Z,9.27
2018-02-23T15:15:45.955Z,9.57
2018-02-23T15:18:14.320Z,11.30
2018-02-23T15:20:42.527Z,12.80
2018-02-23T15:23:09.979Z,9.40
2018-02-23T15:25:37.423Z,11.47
2018-02-23T15:28:05.626Z,10.40
2018-02-23T15:30:44.959Z,7.60
2018-02-23T15:33:12.395Z,9.73
2018-02-23T15:35:40.610Z,9.77
2018-02-23T15:38:08.064Z,7.43
2018-02-23T15:40:35.497Z,9.27
2018-02-23T15:43:03.710Z,11.13
2018-02-23T15:45:31.169Z,11.53
2018-02-23T15:47:59.421Z,11.47
2018-02-23T15:53:32.033Z,8.30
2018-02-23T15:55:59.472Z,11.07
2018-02-23T15:58:45.282Z,10.37
2018-02-23T16:01:12.701Z,8.30
2018-02-23T16:03:40.896Z,8.60
2018-02-23T16:06:08.359Z,10.17
2018-02-23T16:08:36.564Z,9.17
2018-02-23T16:11:04.007Z,7.87
2018-02-23T16:13:31.450Z,11.67
2018-02-23T16:16:06.555Z,6.33
2018-02-23T16:18:35.486Z,6.57
2018-02-23T16:21:05.069Z,7.67
2018-02-23T16:23:32.536Z,7.93
2018-02-23T16:26:08.052Z,8.03
2018-02-23T16:28:38.602Z,5.83
2018-02-23T16:31:09.618Z,6.37
2018-02-23T16:33:40.596Z,6.90
2018-02-23T16:36:14.928Z,9.60
2018-02-23T16:39:01.699Z,8.70
2018-02-23T16:41:37.092Z,10.50
2018-02-23T16:44:08.617Z,7.17
2018-02-23T16:46:40.640Z,7.50
2018-02-23T16:49:13.952Z,7.73
2018-02-23T16:51:41.372Z,11.73
2018-02-23T16:54:09.593Z,10.10
2018-02-23T16:56:37.036Z,9.83
2018-02-23T16:59:04.465Z,8.90
2018-02-23T17:01:32.682Z,12.63
2018-02-23T17:04:00.109Z,8.17
2018-02-23T17:06:28.319Z,15.00
2018-02-23T17:08:55.740Z,8.93
2018-02-23T17:11:23.960Z,18.33
2018-02-23T17:13:51.380Z,11.67
2018-02-23T17:16:19.610Z,8.70
2018-02-23T17:18:47.045Z,9.40
2018-02-23T17:21:14.480Z,24.50
2018-02-23T17:23:41.928Z,8.33
2018-02-23T17:26:09.376Z,10.30
2018-02-23T17:28:36.811Z,18.67
2018-02-23T17:31:04.248Z,8.98
2018-02-23T17:33:32.459Z,9.83
2018-02-23T17:35:59.897Z,7.50
2018-02-23T17:38:28.198Z,11.80
2018-02-23T17:40:55.620Z,10.90
2018-02-23T17:43:23.840Z,8.17
2018-02-23T17:45:51.268Z,13.47
2018-02-23T17:48:19.470Z,8.17
2018-02-23T17:50:46.918Z,10.80
2018-02-23T17:53:15.120Z,6.23
2018-02-23T17:55:42.581Z,8.17
2018-02-23T17:58:10.003Z,14.63
2018-02-23T18:00:38.200Z,9.70
2018-02-23T18:03:05.643Z,7.62
2018-02-23T18:05:33.854Z,9.10
2018-02-23T18:08:01.284Z,9.50
2018-02-23T18:10:29.505Z,7.87
2018-02-23T18:12:56.950Z,10.00
2018-02-23T18:15:24.385Z,5.83
2018-02-23T18:17:52.592Z,10.37
2018-02-23T18:20:20.071Z,13.10
2018-02-23T18:22:47.537Z,7.33
2018-02-23T18:25:14.958Z,15.88
2018-02-23T18:27:43.161Z,8.63
2018-02-23T18:30:10.605Z,6.75
2018-02-23T18:32:38.072Z,12.30
2018-02-23T18:35:06.270Z,8.60
2018-02-23T18:37:33.722Z,8.50
2018-02-23T18:40:01.152Z,11.33
2018-02-23T18:42:28.592Z,13.47
2018-02-23T18:44:56.032Z,10.75
2018-02-23T18:47:23.491Z,9.23
2018-02-23T18:49:50.928Z,11.40
2018-02-23T18:52:18.372Z,14.03
2018-02-23T18:54:46.583Z,9.73
2018-02-23T18:57:14.013Z,9.70
2018-02-23T18:59:42.222Z,9.57
2018-02-23T19:02:09.694Z,16.77
2018-02-23T19:04:37.124Z,10.98
2018-02-23T19:07:05.336Z,11.97
2018-02-23T19:09:32.777Z,17.80
2018-02-23T19:12:00.239Z,19.70
2018-02-23T19:14:27.692Z,9.60
2018-02-23T19:16:55.904Z,10.30
2018-02-23T19:19:23.325Z,16.23
2018-02-23T19:21:51.557Z,9.33
2018-02-23T19:24:18.971Z,10.15
2018-02-23T19:26:47.194Z,6.17
2018-02-23T19:29:14.647Z,10.80
2018-02-23T19:31:42.080Z,8.73
2018-02-23T19:34:10.285Z,10.07
2018-02-23T19:36:37.750Z,8.00
2018-02-23T19:39:05.180Z,6.87
2018-02-23T19:41:33.393Z,8.93
2018-02-23T19:44:00.841Z,11.67
2018-02-23T19:46:28.292Z,8.67
2018-02-23T19:48:55.753Z,12.03
2018-02-23T19:51:23.963Z,12.65
2018-02-23T19:53:51.427Z,10.45
2018-02-23T19:56:18.886Z,14.98
2018-02-23T19:58:46.324Z,8.02
2018-02-23T20:01:13.766Z,8.13
2018-02-23T20:03:41.983Z,6.75
2018-02-23T20:06:09.413Z,8.70
2018-02-23T20:08:37.638Z,10.30
2018-02-23T20:11:05.074Z,10.30
2018-02-23T20:13:32.531Z,6.97
2018-02-23T20:15:59.971Z,9.40
2018-02-23T20:18:28.177Z,7.50
2018-02-23T20:20:55.663Z,5.43
2018-02-23T20:23:23.821Z,8.98
2018-02-23T20:25:51.262Z,8.73
2018-02-23T20:28:19.461Z,13.50
2018-02-23T20:30:46.907Z,6.30
2018-02-23T20:33:15.128Z,6.27
2018-02-23T20:35:42.559Z,8.07
2018-02-23T20:38:10.019Z,9.85
2018-02-23T20:40:37.450Z,12.18
2018-02-23T20:43:04.894Z,9.18
2018-02-23T20:45:32.390Z,12.02
2018-02-23T20:47:59.791Z,8.10
2018-02-23T20:50:27.243Z,8.60
2018-02-23T20:52:54.698Z,8.80
2018-02-23T20:55:22.133Z,6.60
2018-02-23T20:57:49.587Z,8.30
2018-02-23T21:00:17.030Z,7.47
2018-02-23T21:02:45.233Z,10.33
2018-02-23T21:05:12.675Z,9.53
2018-02-23T21:07:40.117Z,7.57
2018-02-23T21:10:07.590Z,8.57
2018-02-23T21:12:43.280Z,11.95
2018-02-23T21:15:21.985Z,9.25
2018-02-23T21:18:03.112Z,7.85
2018-02-23T21:20:56.377Z,10.87
2018-02-23T21:23:23.813Z,10.27
2018-02-23T21:25:51.245Z,12.20
2018-02-23T21:28:18.852Z,15.10
2018-02-23T21:30:46.409Z,11.90
2018-02-23T21:33:13.924Z,16.83
2018-02-23T21:35:41.420Z,18.83
2018-02-23T21:38:09.049Z,20.85
2018-02-23T21:40:36.621Z,14.93
2018-02-23T21:43:04.244Z,11.25
2018-02-23T21:45:32.624Z,13.82
2018-02-23T21:48:00.885Z,16.02
2018-02-23T21:50:28.380Z,18.77
2018-02-23T21:52:55.855Z,13.48
2018-02-23T21:55:23.375Z,13.50
2018-02-23T21:57:51.619Z,12.75
2018-02-23T22:00:19.149Z,13.00
2018-02-23T22:02:46.706Z,12.45
2018-02-23T22:05:14.286Z,16.75
2018-02-23T22:07:41.780Z,15.13
2018-02-23T22:10:09.395Z,17.67
2018-02-23T22:12:37.758Z,16.25
2018-02-23T22:15:05.379Z,17.25
2018-02-23T22:17:32.913Z,21.98
2018-02-23T22:20:00.481Z,18.00
2018-02-23T22:22:28.050Z,19.12
2018-02-23T22:24:55.641Z,18.27
2018-02-23T22:27:23.929Z,17.80
2018-02-23T22:29:51.507Z,19.98
2018-02-23T22:32:19.039Z,21.25
2018-02-23T22:34:47.465Z,16.65
2018-02-23T22:37:15.117Z,16.77
2018-02-23T22:39:42.655Z,19.48
2018-02-23T22:42:10.805Z,20.33
2018-02-23T22:44:39.170Z,22.98
2018-02-23T22:47:06.709Z,18.23
2018-02-23T22:49:34.280Z,23.35
2018-02-23T22:52:01.747Z,16.98
2018-02-23T22:54:29.339Z,21.95
2018-02-23T22:56:56.932Z,21.65
2018-02-23T22:59:24.591Z,26.10
2018-02-23T23:01:52.104Z,17.35
2018-02-23T23:04:20.462Z,25.12
2018-02-23T23:06:47.932Z,17.12
2018-02-23T23:09:15.439Z,18.02
2018-02-23T23:11:42.882Z,23.00
2018-02-23T23:14:10.310Z,23.87
2018-02-23T23:16:37.808Z,20.12
2018-02-23T23:19:05.255Z,17.17
2018-02-23T23:21:32.690Z,16.85
2018-02-23T23:24:00.139Z,23.95
2018-02-23T23:26:28.348Z,22.00
2018-02-23T23:28:55.775Z,20.65
2018-02-23T23:31:23.228Z,18.95
2018-02-23T23:33:51.437Z,19.02
2018-02-23T23:36:18.897Z,21.98
2018-02-23T23:38:46.355Z,18.65
2018-02-23T23:41:13.821Z,16.08
2018-02-23T23:43:41.328Z,18.62
2018-02-23T23:46:09.554Z,21.65
2018-02-23T23:48:37.224Z,24.23
2018-02-23T23:51:04.660Z,20.33
2018-02-23T23:53:32.127Z,23.00
2018-02-23T23:55:59.578Z,19.77
2018-02-23T23:58:27.011Z,19.87
